Aviation Digital Data Service (ADDS)

Output produced by METARs form (1818 UTC 28 July 2016)
found at http://www.aviationweather.gov/adds/metars/
 
KUNV 281753Z 00000KT 10SM SCT070 25/19 A2993
KUNV 281653Z 00000KT 10SM BKN065 25/18 A2995
KUNV 281553Z 00000KT 10SM BKN065 BKN080 24/18 A2996
KUNV 281453Z 00000KT 10SM BKN070 BKN085 23/16 A2997
KUNV 281353Z 00000KT 10SM SCT070 SCT090 23/18 A2997
KUNV 281253Z 00000KT 10SM BKN070 21/17 A2998
KUNV 281153Z 00000KT 10SM BKN070 19/16 A2998
KUNV 281053Z 00000KT 10SM SCT075 17/15 A2997
KUNV 280953Z 00000KT 10SM SCT090 17/15 A2995
KUNV 280935Z AUTO 00000KT 10SM SCT100 17/15 A2995 RMK AO2 T01740150
KUNV 280915Z AUTO 00000KT 10SM SCT100 17/15 A2995 RMK AO2 T01680150
KUNV 280855Z AUTO 00000KT 10SM CLR 16/15 A2996 RMK AO2 T01640147
KUNV 280835Z AUTO 00000KT 10SM CLR 17/15 A2996 RMK AO2 T01730149
KUNV 280815Z AUTO 00000KT 10SM CLR 19/15 A2996 RMK AO2 T01860152
KUNV 280755Z AUTO 00000KT 10SM CLR 18/15 A2996 RMK AO2 T01820150
KUNV 280735Z AUTO 00000KT 10SM CLR 17/15 A2996 RMK AO2 T01740150
KUNV 280715Z AUTO 00000KT 10SM CLR 18/15 A2997 RMK AO2 T01760151
KUNV 280655Z AUTO 00000KT 10SM CLR 19/16 A2997 RMK AO2 T01920156
KUNV 280635Z AUTO 00000KT 10SM CLR 19/16 A2997 RMK AO2 T01870155
KUNV 280615Z AUTO 00000KT 10SM CLR 18/15 A2997 RMK AO2 T01800154
KUNV 280555Z AUTO 00000KT 10SM CLR 20/16 A2997 RMK AO2 T02000155 10287 20200
KUNV 280535Z AUTO 00000KT 10SM CLR 21/15 A2997 RMK AO2 LTG DSNT SW T02080153
KUNV 280515Z AUTO 00000KT 10SM CLR 21/15 A2997 RMK AO2 T02050154
KUNV 280455Z AUTO 00000KT 10SM CLR 21/16 A2997 RMK AO2 T02050158
KUNV 280435Z AUTO 00000KT 10SM CLR 21/16 A2997 RMK AO2 T02130155
KUNV 280415Z AUTO 00000KT 10SM CLR 21/16 A2997 RMK AO2 T02120160
KUNV 280355Z AUTO 00000KT 10SM CLR 22/16 A2996 RMK AO2 T02160157 403140170
KUNV 280335Z AUTO 00000KT 10SM CLR 22/16 A2996 RMK AO2 T02170155
KUNV 280315Z AUTO 00000KT 10SM CLR 23/15 A2997 RMK AO2 T02290151
KUNV 280255Z AUTO 00000KT 10SM CLR 23/15 A2997 RMK AO2 T02300148
KUNV 280235Z AUTO 00000KT 10SM CLR 23/16 A2996 RMK AO2 T02260155
KUNV 280215Z AUTO 00000KT 10SM CLR 25/16 A2996 RMK AO2 T02450155
KUNV 280155Z AUTO 00000KT 10SM CLR 24/16 A2996 RMK AO2 T02380160
KUNV 280053Z 00000KT 10SM SKC 27/14 A2996
KUNV 272353Z 00000KT 10SM FEW065 28/16 A2995
KUNV 272253Z 00000KT 10SM FEW065 30/14 A2995
KUNV 272153Z 00000KT 10SM FEW065 30/14 A2995
KUNV 272053Z 30004KT 10SM FEW065 30/13 A2996
KUNV 271953Z VRB03KT 10SM FEW065 30/14 A2998
KUNV 271853Z VRB03KT 10SM FEW065 30/14 A2998
KUNV 271753Z 30004KT 10SM FEW065 29/13 A3001
KUNV 271653Z 20003KT 10SM FEW045 28/17 A3002
KUNV 271553Z VRB03KT 10SM FEW045 27/17 A3003
KUNV 271453Z 00000KT 10SM FEW030 26/17 A3004
KUNV 271353Z 00000KT 10SM SKC 24/17 A3005
KUNV 271253Z 00000KT 10SM SKC 22/17 A3005
KUNV 271153Z 00000KT 10SM SCT100 18/17 A3003
KUNV 271053Z 00000KT 10SM SCT100 17/16 A3003
KUNV 270953Z 00000KT 10SM SKC 18/16 A3002
KUNV 270935Z AUTO 00000KT 10SM CLR 18/16 A3002 RMK AO2 T01800155
KUNV 270915Z AUTO 00000KT 10SM CLR 18/16 A3001 RMK AO2 T01780155
KUNV 270855Z AUTO 00000KT 10SM CLR 19/16 A3001 RMK AO2 T01880155
KUNV 270835Z AUTO 00000KT 10SM CLR 20/16 A3001 RMK AO2 T01960156
KUNV 270815Z AUTO 00000KT 10SM CLR 19/16 A3001 RMK AO2 T01880156
KUNV 270755Z AUTO 00000KT 10SM CLR 19/16 A3001 RMK AO2 T01850156
KUNV 270735Z AUTO 00000KT 10SM CLR 20/15 A3002 RMK AO2 T02000152
KUNV 270715Z AUTO 00000KT 10SM CLR 21/16 A3002 RMK AO2 T02110155
KUNV 270655Z AUTO 25004KT 10SM CLR 20/16 A3002 RMK AO2 T01990155
KUNV 270635Z AUTO 00000KT 10SM CLR 19/16 A3002 RMK AO2 T01920158